sensor_id;sensor_type;location;lat;lon;timestamp;P1;durP1;ratioP1;P2;durP2;ratioP2
82558;SDS011;72227;42.004;21.364;2024-03-23T00:53:49;1999.90;;;999.90;;
82558;SDS011;72227;42.004;21.364;2024-03-23T00:56:15;1999.90;;;999.90;;
82558;SDS011;72227;42.004;21.364;2024-03-23T00:58:41;1999.90;;;999.90;;
82558;SDS011;72227;42.004;21.364;2024-03-23T01:01:07;1999.90;;;999.90;;
82558;SDS011;72227;42.004;21.364;2024-03-23T01:03:33;1999.90;;;999.90;;
82558;SDS011;72227;42.004;21.364;2024-03-23T01:06:02;1999.90;;;999.90;;
82558;SDS011;72227;42.004;21.364;2024-03-23T01:08:29;1999.90;;;999.90;;
82558;SDS011;72227;42.004;21.364;2024-03-23T01:11:01;1999.90;;;999.90;;
82558;SDS011;72227;42.004;21.364;2024-03-23T01:13:27;1999.90;;;999.90;;
82558;SDS011;72227;42.004;21.364;2024-03-23T01:15:54;1999.90;;;999.90;;
82558;SDS011;72227;42.004;21.364;2024-03-23T01:18:21;1999.90;;;999.90;;
82558;SDS011;72227;42.004;21.364;2024-03-23T01:20:47;1999.90;;;999.90;;
82558;SDS011;72227;42.004;21.364;2024-03-23T01:23:13;1999.90;;;999.90;;
82558;SDS011;72227;42.004;21.364;2024-03-23T01:25:39;1999.90;;;999.90;;
82558;SDS011;72227;42.004;21.364;2024-03-23T01:28:06;1999.90;;;999.90;;
82558;SDS011;72227;42.004;21.364;2024-03-23T01:30:33;1999.90;;;999.90;;
82558;SDS011;72227;42.004;21.364;2024-03-23T01:32:59;1999.90;;;999.90;;
82558;SDS011;72227;42.004;21.364;2024-03-23T01:35:25;1999.90;;;999.90;;
82558;SDS011;72227;42.004;21.364;2024-03-23T01:37:51;1999.90;;;999.90;;
82558;SDS011;72227;42.004;21.364;2024-03-23T01:40:17;1999.90;;;999.90;;
82558;SDS011;72227;42.004;21.364;2024-03-23T01:43:05;1999.90;;;999.90;;
82558;SDS011;72227;42.004;21.364;2024-03-23T01:45:30;1999.90;;;999.90;;
82558;SDS011;72227;42.004;21.364;2024-03-23T01:47:57;1999.90;;;999.90;;
82558;SDS011;72227;42.004;21.364;2024-03-23T01:50:24;1999.90;;;999.90;;
82558;SDS011;72227;42.004;21.364;2024-03-23T01:52:50;1999.90;;;999.90;;
82558;SDS011;72227;42.004;21.364;2024-03-23T01:55:16;1999.90;;;999.90;;
82558;SDS011;72227;42.004;21.364;2024-03-23T01:57:42;1999.90;;;999.90;;
82558;SDS011;72227;42.004;21.364;2024-03-23T02:00:08;1999.90;;;999.90;;
82558;SDS011;72227;42.004;21.364;2024-03-23T02:02:41;1999.90;;;999.90;;
82558;SDS011;72227;42.004;21.364;2024-03-23T02:05:07;1999.90;;;999.90;;
82558;SDS011;72227;42.004;21.364;2024-03-23T02:07:33;1999.90;;;999.90;;
82558;SDS011;72227;42.004;21.364;2024-03-23T02:09:59;1999.90;;;999.90;;
82558;SDS011;72227;42.004;21.364;2024-03-23T02:12:26;1999.90;;;999.90;;
82558;SDS011;72227;42.004;21.364;2024-03-23T02:14:52;1999.90;;;999.90;;
82558;SDS011;72227;42.004;21.364;2024-03-23T02:17:18;1999.90;;;999.90;;
82558;SDS011;72227;42.004;21.364;2024-03-23T02:19:44;1999.90;;;999.90;;
82558;SDS011;72227;42.004;21.364;2024-03-23T02:22:11;1999.90;;;999.90;;
82558;SDS011;72227;42.004;21.364;2024-03-23T02:24:37;1999.90;;;999.90;;
82558;SDS011;72227;42.004;21.364;2024-03-23T02:27:04;1999.90;;;999.90;;
82558;SDS011;72227;42.004;21.364;2024-03-23T02:29:30;1999.90;;;999.90;;
82558;SDS011;72227;42.004;21.364;2024-03-23T02:31:56;1999.90;;;999.90;;
82558;SDS011;72227;42.004;21.364;2024-03-23T02:34:23;1999.90;;;999.90;;
82558;SDS011;72227;42.004;21.364;2024-03-23T02:36:49;1999.90;;;999.90;;
82558;SDS011;72227;42.004;21.364;2024-03-23T02:39:16;1999.90;;;999.90;;
82558;SDS011;72227;42.004;21.364;2024-03-23T02:41:42;1999.90;;;999.90;;
82558;SDS011;72227;42.004;21.364;2024-03-23T02:44:08;1999.90;;;999.90;;
82558;SDS011;72227;42.004;21.364;2024-03-23T02:46:36;1999.90;;;999.90;;
82558;SDS011;72227;42.004;21.364;2024-03-23T02:49:03;1999.90;;;999.90;;
82558;SDS011;72227;42.004;21.364;2024-03-23T02:51:29;1999.90;;;999.90;;
82558;SDS011;72227;42.004;21.364;2024-03-23T02:53:55;1999.90;;;999.90;;
82558;SDS011;72227;42.004;21.364;2024-03-23T02:56:22;1999.90;;;999.90;;
82558;SDS011;72227;42.004;21.364;2024-03-23T02:58:48;1999.90;;;999.90;;
82558;SDS011;72227;42.004;21.364;2024-03-23T03:01:14;1999.90;;;999.90;;
82558;SDS011;72227;42.004;21.364;2024-03-23T03:03:40;1999.90;;;999.90;;
82558;SDS011;72227;42.004;21.364;2024-03-23T03:06:06;1999.90;;;999.90;;
82558;SDS011;72227;42.004;21.364;2024-03-23T03:08:32;1999.90;;;999.90;;
82558;SDS011;72227;42.004;21.364;2024-03-23T03:10:58;1999.90;;;999.90;;
82558;SDS011;72227;42.004;21.364;2024-03-23T03:13:24;1999.90;;;999.90;;
82558;SDS011;72227;42.004;21.364;2024-03-23T03:15:51;1999.90;;;999.90;;
82558;SDS011;72227;42.004;21.364;2024-03-23T03:18:18;1999.90;;;999.90;;
82558;SDS011;72227;42.004;21.364;2024-03-23T03:20:44;1999.90;;;999.90;;
82558;SDS011;72227;42.004;21.364;2024-03-23T03:23:11;1999.90;;;999.90;;
82558;SDS011;72227;42.004;21.364;2024-03-23T03:25:37;1999.90;;;999.90;;
82558;SDS011;72227;42.004;21.364;2024-03-23T03:28:03;1999.90;;;999.90;;
82558;SDS011;72227;42.004;21.364;2024-03-23T03:30:30;1999.90;;;999.90;;
82558;SDS011;72227;42.004;21.364;2024-03-23T03:32:56;1999.90;;;999.90;;
82558;SDS011;72227;42.004;21.364;2024-03-23T03:35:22;1999.90;;;999.90;;
82558;SDS011;72227;42.004;21.364;2024-03-23T03:37:48;1999.90;;;999.90;;
82558;SDS011;72227;42.004;21.364;2024-03-23T03:40:14;1999.90;;;999.90;;
82558;SDS011;72227;42.004;21.364;2024-03-23T03:42:41;1999.90;;;999.90;;
82558;SDS011;72227;42.004;21.364;2024-03-23T03:45:07;1999.90;;;999.90;;
82558;SDS011;72227;42.004;21.364;2024-03-23T03:47:33;1999.90;;;999.90;;
82558;SDS011;72227;42.004;21.364;2024-03-23T03:49:59;1999.90;;;999.90;;
82558;SDS011;72227;42.004;21.364;2024-03-23T03:52:25;1999.90;;;999.90;;
82558;SDS011;72227;42.004;21.364;2024-03-23T03:54:55;1999.90;;;999.90;;
82558;SDS011;72227;42.004;21.364;2024-03-23T03:57:21;1999.90;;;999.90;;
82558;SDS011;72227;42.004;21.364;2024-03-23T03:59:47;1999.90;;;999.90;;
82558;SDS011;72227;42.004;21.364;2024-03-23T04:02:14;1999.90;;;999.90;;
82558;SDS011;72227;42.004;21.364;2024-03-23T04:04:40;1999.90;;;999.90;;
82558;SDS011;72227;42.004;21.364;2024-03-23T04:07:06;1999.90;;;999.90;;
82558;SDS011;72227;42.004;21.364;2024-03-23T04:09:32;1999.90;;;999.90;;
82558;SDS011;72227;42.004;21.364;2024-03-23T04:11:59;1999.90;;;999.90;;
82558;SDS011;72227;42.004;21.364;2024-03-23T04:14:25;1999.90;;;999.90;;
82558;SDS011;72227;42.004;21.364;2024-03-23T04:16:51;1999.90;;;999.90;;
82558;SDS011;72227;42.004;21.364;2024-03-23T04:19:17;1999.90;;;999.90;;
82558;SDS011;72227;42.004;21.364;2024-03-23T04:21:43;1999.90;;;999.90;;
82558;SDS011;72227;42.004;21.364;2024-03-23T04:24:09;1999.90;;;999.90;;
82558;SDS011;72227;42.004;21.364;2024-03-23T04:26:41;1999.90;;;999.90;;
82558;SDS011;72227;42.004;21.364;2024-03-23T04:29:08;1999.90;;;999.90;;
82558;SDS011;72227;42.004;21.364;2024-03-23T04:31:34;1999.90;;;999.90;;
82558;SDS011;72227;42.004;21.364;2024-03-23T04:34:00;1999.90;;;999.90;;
82558;SDS011;72227;42.004;21.364;2024-03-23T04:36:27;1999.90;;;999.90;;
82558;SDS011;72227;42.004;21.364;2024-03-23T04:38:53;1999.90;;;999.90;;
82558;SDS011;72227;42.004;21.364;2024-03-23T04:41:19;1999.90;;;999.90;;
82558;SDS011;72227;42.004;21.364;2024-03-23T04:43:45;1999.90;;;999.90;;
82558;SDS011;72227;42.004;21.364;2024-03-23T04:46:11;1999.90;;;999.90;;
82558;SDS011;72227;42.004;21.364;2024-03-23T04:48:37;1999.90;;;999.90;;
82558;SDS011;72227;42.004;21.364;2024-03-23T04:51:03;1999.90;;;999.90;;
82558;SDS011;72227;42.004;21.364;2024-03-23T04:53:29;1999.90;;;999.90;;
82558;SDS011;72227;42.004;21.364;2024-03-23T04:55:56;1999.90;;;999.90;;
82558;SDS011;72227;42.004;21.364;2024-03-23T04:58:24;1999.90;;;999.90;;
82558;SDS011;72227;42.004;21.364;2024-03-23T05:00:56;1999.90;;;999.90;;
82558;SDS011;72227;42.004;21.364;2024-03-23T05:03:23;1999.90;;;999.90;;
82558;SDS011;72227;42.004;21.364;2024-03-23T05:05:49;1999.90;;;999.90;;
82558;SDS011;72227;42.004;21.364;2024-03-23T05:08:16;1999.90;;;999.90;;
82558;SDS011;72227;42.004;21.364;2024-03-23T05:10:42;1999.90;;;999.90;;
82558;SDS011;72227;42.004;21.364;2024-03-23T05:13:09;1999.90;;;999.90;;
82558;SDS011;72227;42.004;21.364;2024-03-23T05:15:35;1999.90;;;999.90;;
82558;SDS011;72227;42.004;21.364;2024-03-23T05:18:01;1999.90;;;999.90;;
82558;SDS011;72227;42.004;21.364;2024-03-23T05:20:28;1999.90;;;999.90;;
82558;SDS011;72227;42.004;21.364;2024-03-23T05:22:57;1999.90;;;999.90;;
82558;SDS011;72227;42.004;21.364;2024-03-23T05:25:23;1999.90;;;999.90;;
82558;SDS011;72227;42.004;21.364;2024-03-23T05:27:49;1999.90;;;999.90;;
82558;SDS011;72227;42.004;21.364;2024-03-23T05:30:15;1999.90;;;999.90;;
82558;SDS011;72227;42.004;21.364;2024-03-23T05:32:41;1999.90;;;999.90;;
82558;SDS011;72227;42.004;21.364;2024-03-23T05:35:08;1999.90;;;999.90;;
82558;SDS011;72227;42.004;21.364;2024-03-23T05:37:34;1999.90;;;999.90;;
82558;SDS011;72227;42.004;21.364;2024-03-23T05:40:02;1999.90;;;999.90;;
82558;SDS011;72227;42.004;21.364;2024-03-23T05:42:28;1999.90;;;999.90;;
82558;SDS011;72227;42.004;21.364;2024-03-23T05:44:55;1999.90;;;999.90;;
82558;SDS011;72227;42.004;21.364;2024-03-23T05:47:21;1999.90;;;999.90;;
82558;SDS011;72227;42.004;21.364;2024-03-23T05:49:47;1999.90;;;999.90;;
82558;SDS011;72227;42.004;21.364;2024-03-23T05:52:13;1999.90;;;999.90;;
82558;SDS011;72227;42.004;21.364;2024-03-23T05:54:39;1999.90;;;999.90;;
82558;SDS011;72227;42.004;21.364;2024-03-23T05:57:05;1999.90;;;999.90;;
82558;SDS011;72227;42.004;21.364;2024-03-23T05:59:32;1999.90;;;999.90;;
82558;SDS011;72227;42.004;21.364;2024-03-23T06:01:58;1999.90;;;999.90;;
82558;SDS011;72227;42.004;21.364;2024-03-23T06:04:24;1999.90;;;999.90;;
82558;SDS011;72227;42.004;21.364;2024-03-23T06:06:51;1999.90;;;999.90;;
82558;SDS011;72227;42.004;21.364;2024-03-23T06:09:17;1999.90;;;999.90;;
82558;SDS011;72227;42.004;21.364;2024-03-23T06:11:44;1999.90;;;999.90;;
82558;SDS011;72227;42.004;21.364;2024-03-23T06:14:10;1999.90;;;999.90;;
82558;SDS011;72227;42.004;21.364;2024-03-23T06:16:36;1999.90;;;999.90;;
82558;SDS011;72227;42.004;21.364;2024-03-23T06:19:02;1999.90;;;999.90;;
82558;SDS011;72227;42.004;21.364;2024-03-23T06:21:31;1999.90;;;999.90;;
82558;SDS011;72227;42.004;21.364;2024-03-23T06:23:58;1999.90;;;999.90;;
82558;SDS011;72227;42.004;21.364;2024-03-23T06:26:24;1999.90;;;999.90;;
82558;SDS011;72227;42.004;21.364;2024-03-23T06:28:50;1999.90;;;999.90;;
82558;SDS011;72227;42.004;21.364;2024-03-23T06:31:16;1999.90;;;999.90;;
82558;SDS011;72227;42.004;21.364;2024-03-23T06:33:43;1999.90;;;999.90;;
82558;SDS011;72227;42.004;21.364;2024-03-23T06:36:09;1999.90;;;999.90;;
82558;SDS011;72227;42.004;21.364;2024-03-23T06:38:36;1999.90;;;999.90;;
82558;SDS011;72227;42.004;21.364;2024-03-23T06:41:03;1999.90;;;999.90;;
82558;SDS011;72227;42.004;21.364;2024-03-23T06:43:29;1999.90;;;999.90;;
82558;SDS011;72227;42.004;21.364;2024-03-23T06:45:55;1999.90;;;999.90;;
82558;SDS011;72227;42.004;21.364;2024-03-23T06:48:22;1999.90;;;999.90;;
82558;SDS011;72227;42.004;21.364;2024-03-23T06:50:48;1999.90;;;999.90;;
82558;SDS011;72227;42.004;21.364;2024-03-23T06:53:14;1999.90;;;999.90;;
82558;SDS011;72227;42.004;21.364;2024-03-23T06:55:40;1999.90;;;999.90;;
82558;SDS011;72227;42.004;21.364;2024-03-23T06:58:07;1999.90;;;999.90;;
82558;SDS011;72227;42.004;21.364;2024-03-23T07:00:35;1999.90;;;999.90;;
82558;SDS011;72227;42.004;21.364;2024-03-23T07:03:01;1999.90;;;999.90;;
82558;SDS011;72227;42.004;21.364;2024-03-23T07:05:28;1999.90;;;999.90;;
82558;SDS011;72227;42.004;21.364;2024-03-23T07:07:54;1999.90;;;999.90;;
82558;SDS011;72227;42.004;21.364;2024-03-23T07:10:20;1999.90;;;999.90;;
82558;SDS011;72227;42.004;21.364;2024-03-23T07:12:46;1999.90;;;999.90;;
82558;SDS011;72227;42.004;21.364;2024-03-23T07:15:13;1999.90;;;999.90;;
82558;SDS011;72227;42.004;21.364;2024-03-23T07:17:39;1999.90;;;999.90;;
82558;SDS011;72227;42.004;21.364;2024-03-23T07:20:05;1999.90;;;999.90;;
82558;SDS011;72227;42.004;21.364;2024-03-23T07:22:35;1999.90;;;999.90;;
82558;SDS011;72227;42.004;21.364;2024-03-23T07:25:01;1999.90;;;999.90;;
82558;SDS011;72227;42.004;21.364;2024-03-23T07:27:28;1999.90;;;999.90;;
82558;SDS011;72227;42.004;21.364;2024-03-23T07:29:54;1999.90;;;999.90;;
82558;SDS011;72227;42.004;21.364;2024-03-23T07:32:20;1999.90;;;999.90;;
82558;SDS011;72227;42.004;21.364;2024-03-23T07:34:47;1999.90;;;999.90;;
82558;SDS011;72227;42.004;21.364;2024-03-23T07:37:13;1999.90;;;999.90;;
82558;SDS011;72227;42.004;21.364;2024-03-23T07:39:39;1999.90;;;999.90;;
82558;SDS011;72227;42.004;21.364;2024-03-23T07:42:06;1999.90;;;999.90;;
82558;SDS011;72227;42.004;21.364;2024-03-23T07:44:32;1999.90;;;999.90;;
82558;SDS011;72227;42.004;21.364;2024-03-23T07:46:59;1999.90;;;999.90;;
82558;SDS011;72227;42.004;21.364;2024-03-23T07:49:25;1999.90;;;999.90;;
82558;SDS011;72227;42.004;21.364;2024-03-23T07:51:51;1999.90;;;999.90;;
82558;SDS011;72227;42.004;21.364;2024-03-23T07:54:17;1999.90;;;999.90;;
82558;SDS011;72227;42.004;21.364;2024-03-23T07:56:43;1999.90;;;999.90;;
82558;SDS011;72227;42.004;21.364;2024-03-23T07:59:09;1999.90;;;999.90;;
82558;SDS011;72227;42.004;21.364;2024-03-23T08:01:36;1999.90;;;999.90;;
82558;SDS011;72227;42.004;21.364;2024-03-23T08:04:02;1999.90;;;999.90;;
82558;SDS011;72227;42.004;21.364;2024-03-23T08:06:28;1999.90;;;999.90;;
82558;SDS011;72227;42.004;21.364;2024-03-23T08:08:55;1999.90;;;999.90;;
82558;SDS011;72227;42.004;21.364;2024-03-23T08:11:28;1999.90;;;999.90;;
82558;SDS011;72227;42.004;21.364;2024-03-23T08:13:54;1999.90;;;999.90;;
82558;SDS011;72227;42.004;21.364;2024-03-23T08:16:20;1999.90;;;999.90;;
82558;SDS011;72227;42.004;21.364;2024-03-23T08:18:46;1999.90;;;999.90;;
82558;SDS011;72227;42.004;21.364;2024-03-23T08:21:13;1999.90;;;999.90;;
82558;SDS011;72227;42.004;21.364;2024-03-23T08:23:39;1999.90;;;999.90;;
82558;SDS011;72227;42.004;21.364;2024-03-23T08:26:09;1999.90;;;999.90;;
82558;SDS011;72227;42.004;21.364;2024-03-23T08:28:35;1999.90;;;999.90;;
82558;SDS011;72227;42.004;21.364;2024-03-23T08:31:05;1999.90;;;999.90;;
82558;SDS011;72227;42.004;21.364;2024-03-23T08:33:31;1999.90;;;999.90;;
82558;SDS011;72227;42.004;21.364;2024-03-23T08:36:01;1999.90;;;999.90;;
82558;SDS011;72227;42.004;21.364;2024-03-23T08:38:28;1999.90;;;999.90;;
82558;SDS011;72227;42.004;21.364;2024-03-23T08:40:57;1999.90;;;999.90;;
82558;SDS011;72227;42.004;21.364;2024-03-23T08:43:24;1999.90;;;999.90;;
82558;SDS011;72227;42.004;21.364;2024-03-23T08:45:50;1999.90;;;999.90;;
82558;SDS011;72227;42.004;21.364;2024-03-23T08:48:17;1999.90;;;999.90;;
82558;SDS011;72227;42.004;21.364;2024-03-23T08:50:44;127.35;;;122.15;;
82558;SDS011;72227;42.004;21.364;2024-03-23T08:53:10;122.40;;;117.28;;
82558;SDS011;72227;42.004;21.364;2024-03-23T08:55:36;105.20;;;100.38;;
82558;SDS011;72227;42.004;21.364;2024-03-23T08:58:02;110.03;;;105.28;;
82558;SDS011;72227;42.004;21.364;2024-03-23T09:00:29;106.65;;;101.75;;
82558;SDS011;72227;42.004;21.364;2024-03-23T09:02:55;125.15;;;119.82;;
82558;SDS011;72227;42.004;21.364;2024-03-23T09:05:22;114.88;;;109.95;;
82558;SDS011;72227;42.004;21.364;2024-03-23T09:07:49;108.95;;;104.03;;
82558;SDS011;72227;42.004;21.364;2024-03-23T09:10:15;115.22;;;110.05;;
82558;SDS011;72227;42.004;21.364;2024-03-23T09:12:41;114.88;;;109.90;;
82558;SDS011;72227;42.004;21.364;2024-03-23T09:15:07;114.53;;;109.30;;
82558;SDS011;72227;42.004;21.364;2024-03-23T09:17:33;115.00;;;109.80;;
82558;SDS011;72227;42.004;21.364;2024-03-23T09:19:59;190.88;;;183.20;;
82558;SDS011;72227;42.004;21.364;2024-03-23T09:22:25;126.35;;;120.70;;
82558;SDS011;72227;42.004;21.364;2024-03-23T09:24:51;127.55;;;122.22;;
82558;SDS011;72227;42.004;21.364;2024-03-23T09:27:17;119.38;;;114.28;;
82558;SDS011;72227;42.004;21.364;2024-03-23T09:29:43;120.80;;;115.53;;
82558;SDS011;72227;42.004;21.364;2024-03-23T09:32:10;132.23;;;126.22;;
82558;SDS011;72227;42.004;21.364;2024-03-23T09:34:36;171.88;;;164.85;;
82558;SDS011;72227;42.004;21.364;2024-03-23T09:37:02;231.70;;;221.27;;
82558;SDS011;72227;42.004;21.364;2024-03-23T09:39:28;125.47;;;120.10;;
82558;SDS011;72227;42.004;21.364;2024-03-23T09:41:57;117.47;;;112.45;;
82558;SDS011;72227;42.004;21.364;2024-03-23T09:44:24;107.50;;;102.63;;
82558;SDS011;72227;42.004;21.364;2024-03-23T09:46:51;113.10;;;108.28;;
82558;SDS011;72227;42.004;21.364;2024-03-23T09:49:17;148.95;;;142.65;;
82558;SDS011;72227;42.004;21.364;2024-03-23T09:51:43;131.90;;;125.97;;
82558;SDS011;72227;42.004;21.364;2024-03-23T09:54:09;122.03;;;116.82;;
82558;SDS011;72227;42.004;21.364;2024-03-23T09:56:35;161.32;;;154.77;;
82558;SDS011;72227;42.004;21.364;2024-03-23T09:59:02;150.10;;;143.90;;
82558;SDS011;72227;42.004;21.364;2024-03-23T10:01:31;149.55;;;143.38;;
82558;SDS011;72227;42.004;21.364;2024-03-23T10:03:57;133.40;;;127.80;;
82558;SDS011;72227;42.004;21.364;2024-03-23T10:06:23;109.32;;;104.63;;
82558;SDS011;72227;42.004;21.364;2024-03-23T10:08:50;113.00;;;108.10;;
82558;SDS011;72227;42.004;21.364;2024-03-23T10:11:16;121.72;;;116.45;;
82558;SDS011;72227;42.004;21.364;2024-03-23T10:13:43;133.73;;;128.07;;
82558;SDS011;72227;42.004;21.364;2024-03-23T10:16:10;142.20;;;136.55;;
82558;SDS011;72227;42.004;21.364;2024-03-23T10:18:37;112.95;;;108.22;;
82558;SDS011;72227;42.004;21.364;2024-03-23T10:21:07;110.35;;;105.47;;
82558;SDS011;72227;42.004;21.364;2024-03-23T10:29:17;105.57;;;101.05;;
82558;SDS011;72227;42.004;21.364;2024-03-23T10:31:37;105.43;;;100.82;;
82558;SDS011;72227;42.004;21.364;2024-03-23T10:34:06;96.10;;;92.03;;
82558;SDS011;72227;42.004;21.364;2024-03-23T10:36:33;106.05;;;101.20;;
82558;SDS011;72227;42.004;21.364;2024-03-23T10:39:00;99.75;;;95.57;;
82558;SDS011;72227;42.004;21.364;2024-03-23T10:41:27;103.43;;;99.15;;
82558;SDS011;72227;42.004;21.364;2024-03-23T10:43:54;86.80;;;82.95;;
82558;SDS011;72227;42.004;21.364;2024-03-23T10:46:21;91.13;;;87.18;;
82558;SDS011;72227;42.004;21.364;2024-03-23T10:48:47;96.07;;;91.93;;
82558;SDS011;72227;42.004;21.364;2024-03-23T10:51:14;95.47;;;91.53;;
82558;SDS011;72227;42.004;21.364;2024-03-23T10:53:40;97.15;;;92.97;;
82558;SDS011;72227;42.004;21.364;2024-03-23T10:56:07;85.80;;;82.15;;
82558;SDS011;72227;42.004;21.364;2024-03-23T11:00:59;91.47;;;87.47;;
82558;SDS011;72227;42.004;21.364;2024-03-23T11:03:35;94.28;;;90.47;;
82558;SDS011;72227;42.004;21.364;2024-03-23T11:06:05;96.43;;;92.38;;
82558;SDS011;72227;42.004;21.364;2024-03-23T11:08:38;77.10;;;73.95;;
82558;SDS011;72227;42.004;21.364;2024-03-23T11:11:23;149.50;;;143.68;;
82558;SDS011;72227;42.004;21.364;2024-03-23T11:13:51;95.07;;;90.93;;
82558;SDS011;72227;42.004;21.364;2024-03-23T11:16:21;96.55;;;92.40;;
82558;SDS011;72227;42.004;21.364;2024-03-23T11:18:48;90.95;;;87.13;;
82558;SDS011;72227;42.004;21.364;2024-03-23T11:24:14;89.15;;;85.25;;
82558;SDS011;72227;42.004;21.364;2024-03-23T11:26:41;92.50;;;88.50;;
82558;SDS011;72227;42.004;21.364;2024-03-23T11:29:13;86.95;;;82.95;;
82558;SDS011;72227;42.004;21.364;2024-03-23T11:31:47;83.72;;;80.10;;
82558;SDS011;72227;42.004;21.364;2024-03-23T11:34:13;80.22;;;76.78;;
82558;SDS011;72227;42.004;21.364;2024-03-23T11:36:41;105.30;;;101.18;;
82558;SDS011;72227;42.004;21.364;2024-03-23T11:39:16;84.85;;;81.20;;
82558;SDS011;72227;42.004;21.364;2024-03-23T11:44:18;113.82;;;109.03;;
82558;SDS011;72227;42.004;21.364;2024-03-23T11:46:45;80.82;;;77.43;;
82558;SDS011;72227;42.004;21.364;2024-03-23T11:49:27;66.63;;;63.70;;
82558;SDS011;72227;42.004;21.364;2024-03-23T11:51:54;87.50;;;83.80;;
82558;SDS011;72227;42.004;21.364;2024-03-23T11:54:20;92.45;;;88.65;;
82558;SDS011;72227;42.004;21.364;2024-03-23T11:56:56;78.15;;;74.57;;
82558;SDS011;72227;42.004;21.364;2024-03-23T11:59:33;112.10;;;107.65;;
82558;SDS011;72227;42.004;21.364;2024-03-23T12:01:59;78.45;;;75.22;;
82558;SDS011;72227;42.004;21.364;2024-03-23T12:04:28;87.75;;;84.30;;
82558;SDS011;72227;42.004;21.364;2024-03-23T12:09:36;84.45;;;80.82;;
82558;SDS011;72227;42.004;21.364;2024-03-23T12:12:13;88.90;;;85.32;;
82558;SDS011;72227;42.004;21.364;2024-03-23T12:14:41;79.82;;;76.57;;
82558;SDS011;72227;42.004;21.364;2024-03-23T12:17:08;79.82;;;76.65;;
82558;SDS011;72227;42.004;21.364;2024-03-23T12:19:34;82.30;;;78.97;;
82558;SDS011;72227;42.004;21.364;2024-03-23T12:22:00;76.15;;;72.88;;
82558;SDS011;72227;42.004;21.364;2024-03-23T12:24:26;96.63;;;92.93;;
82558;SDS011;72227;42.004;21.364;2024-03-23T12:26:52;88.30;;;84.80;;
82558;SDS011;72227;42.004;21.364;2024-03-23T12:29:18;113.10;;;108.70;;
82558;SDS011;72227;42.004;21.364;2024-03-23T12:31:45;150.52;;;145.05;;
82558;SDS011;72227;42.004;21.364;2024-03-23T12:34:11;157.55;;;151.88;;
82558;SDS011;72227;42.004;21.364;2024-03-23T12:36:37;164.10;;;158.32;;
82558;SDS011;72227;42.004;21.364;2024-03-23T12:39:04;165.05;;;159.40;;
82558;SDS011;72227;42.004;21.364;2024-03-23T12:41:30;157.40;;;151.80;;
82558;SDS011;72227;42.004;21.364;2024-03-23T12:43:56;144.27;;;138.35;;
82558;SDS011;72227;42.004;21.364;2024-03-23T12:46:22;154.95;;;149.43;;
82558;SDS011;72227;42.004;21.364;2024-03-23T12:48:48;137.27;;;132.38;;
82558;SDS011;72227;42.004;21.364;2024-03-23T12:51:14;159.00;;;153.45;;
82558;SDS011;72227;42.004;21.364;2024-03-23T12:53:40;171.50;;;165.48;;
82558;SDS011;72227;42.004;21.364;2024-03-23T12:56:06;193.10;;;186.23;;
82558;SDS011;72227;42.004;21.364;2024-03-23T12:58:32;131.02;;;126.20;;
82558;SDS011;72227;42.004;21.364;2024-03-23T13:00:58;159.07;;;153.45;;
82558;SDS011;72227;42.004;21.364;2024-03-23T13:03:24;177.18;;;170.93;;
82558;SDS011;72227;42.004;21.364;2024-03-23T13:05:51;158.82;;;153.02;;
82558;SDS011;72227;42.004;21.364;2024-03-23T13:08:17;138.55;;;133.50;;
82558;SDS011;72227;42.004;21.364;2024-03-23T13:10:43;124.82;;;120.18;;
82558;SDS011;72227;42.004;21.364;2024-03-23T13:13:10;160.93;;;155.20;;
82558;SDS011;72227;42.004;21.364;2024-03-23T13:15:36;180.88;;;174.38;;
82558;SDS011;72227;42.004;21.364;2024-03-23T13:18:02;175.00;;;168.55;;
82558;SDS011;72227;42.004;21.364;2024-03-23T13:20:28;146.95;;;141.75;;
82558;SDS011;72227;42.004;21.364;2024-03-23T13:22:54;200.23;;;193.25;;
82558;SDS011;72227;42.004;21.364;2024-03-23T13:25:20;163.57;;;157.68;;
82558;SDS011;72227;42.004;21.364;2024-03-23T13:27:46;194.32;;;187.52;;
82558;SDS011;72227;42.004;21.364;2024-03-23T13:30:12;208.73;;;201.52;;
82558;SDS011;72227;42.004;21.364;2024-03-23T13:32:38;200.40;;;193.15;;
82558;SDS011;72227;42.004;21.364;2024-03-23T13:35:05;200.52;;;193.20;;
82558;SDS011;72227;42.004;21.364;2024-03-23T13:37:31;197.50;;;190.23;;
82558;SDS011;72227;42.004;21.364;2024-03-23T13:40:00;205.90;;;198.63;;
82558;SDS011;72227;42.004;21.364;2024-03-23T13:42:26;264.83;;;255.50;;
82558;SDS011;72227;42.004;21.364;2024-03-23T13:44:52;245.20;;;236.43;;
82558;SDS011;72227;42.004;21.364;2024-03-23T13:47:18;194.73;;;187.75;;
82558;SDS011;72227;42.004;21.364;2024-03-23T13:49:44;231.80;;;223.65;;
82558;SDS011;72227;42.004;21.364;2024-03-23T13:52:11;154.80;;;149.23;;
82558;SDS011;72227;42.004;21.364;2024-03-23T13:54:37;198.90;;;191.82;;
82558;SDS011;72227;42.004;21.364;2024-03-23T13:57:03;203.85;;;196.70;;
82558;SDS011;72227;42.004;21.364;2024-03-23T13:59:29;211.48;;;204.05;;
82558;SDS011;72227;42.004;21.364;2024-03-23T14:01:55;183.40;;;176.93;;
82558;SDS011;72227;42.004;21.364;2024-03-23T14:04:21;151.68;;;146.13;;
82558;SDS011;72227;42.004;21.364;2024-03-23T14:06:50;170.35;;;162.00;;
82558;SDS011;72227;42.004;21.364;2024-03-23T14:09:16;175.32;;;168.95;;
82558;SDS011;72227;42.004;21.364;2024-03-23T14:11:46;162.45;;;156.77;;
82558;SDS011;72227;42.004;21.364;2024-03-23T14:14:12;149.63;;;144.15;;
82558;SDS011;72227;42.004;21.364;2024-03-23T14:16:43;127.63;;;123.03;;
82558;SDS011;72227;42.004;21.364;2024-03-23T14:19:09;149.27;;;143.85;;
82558;SDS011;72227;42.004;21.364;2024-03-23T14:21:35;132.07;;;127.30;;
82558;SDS011;72227;42.004;21.364;2024-03-23T14:24:01;101.03;;;97.07;;
82558;SDS011;72227;42.004;21.364;2024-03-23T14:26:27;78.97;;;75.82;;
82558;SDS011;72227;42.004;21.364;2024-03-23T14:28:54;124.00;;;119.60;;
82558;SDS011;72227;42.004;21.364;2024-03-23T14:31:20;100.65;;;97.00;;
82558;SDS011;72227;42.004;21.364;2024-03-23T14:33:46;109.65;;;105.55;;
82558;SDS011;72227;42.004;21.364;2024-03-23T14:36:13;87.68;;;84.32;;
82558;SDS011;72227;42.004;21.364;2024-03-23T14:38:39;126.25;;;121.40;;
82558;SDS011;72227;42.004;21.364;2024-03-23T14:41:05;78.93;;;75.85;;
82558;SDS011;72227;42.004;21.364;2024-03-23T14:43:31;95.07;;;91.38;;
82558;SDS011;72227;42.004;21.364;2024-03-23T14:46:10;91.25;;;87.65;;
82558;SDS011;72227;42.004;21.364;2024-03-23T14:48:36;89.90;;;86.25;;